Time;durP1;ratioP1;P1;durP2;ratioP2;P2;SDS_P1;SDS_P2;PMS_P1;PMS_P2;Temp;Humidity;BMP_temperature;BMP_pressure;BME280_temperature;BME280_humidity;BME280_pressure;Samples;Min_cycle;Max_cycle;Signal;HPM_P1;HPM_P2
2020/12/02 00:00:00;;;;;;;20.77;12.75;;;;;;;0.89;99.17;100966.11;1759653;79;21021;-53
2020/12/02 00:02:35;;;;;;;20.95;12.90;;;;;;;0.90;99.05;100966.99;1766498;79;21022;-52
2020/12/02 00:09:20;;;;;;;22.62;14.53;;;;;;;0.98;99.27;100970.62;1727713;79;22891;-54
2020/12/02 00:11:49;;;;;;;25.43;14.65;;;;;;;0.96;99.26;100975.92;1697896;82;20994;-54
2020/12/02 00:14:24;;;;;;;22.55;14.43;;;;;;;0.98;99.24;100976.81;1696586;82;21446;-55
2020/12/02 00:16:52;;;;;;;21.65;12.82;;;;;;;0.98;99.14;100974.16;1674145;82;21015;-54
2020/12/02 00:19:20;;;;;;;19.98;13.50;;;;;;;0.95;98.94;100976.77;1697552;82;21445;-52
2020/12/02 00:22:05;;;;;;;22.25;14.03;;;;;;;0.91;98.92;100975.00;1697450;82;21625;-52
2020/12/02 00:24:34;;;;;;;22.50;15.18;;;;;;;0.93;99.21;100970.58;1696052;82;20942;-55
2020/12/02 00:27:18;;;;;;;23.62;14.90;;;;;;;0.99;99.41;100969.30;1698402;82;22313;-55
2020/12/02 00:29:46;;;;;;;26.15;14.98;;;;;;;1.01;99.25;100976.86;1697334;82;21017;-51
2020/12/02 00:32:34;;;;;;;23.35;13.60;;;;;;;1.00;98.97;100976.37;1698502;82;21017;-52
2020/12/02 00:35:02;;;;;;;21.68;13.30;;;;;;;0.98;98.96;100976.81;1696791;82;21128;-51
2020/12/02 00:37:30;;;;;;;21.00;13.75;;;;;;;0.98;98.93;100976.81;1694339;82;21237;-54
2020/12/02 00:39:58;;;;;;;24.77;15.23;;;;;;;0.96;98.86;100975.92;1694898;82;22122;-55
2020/12/02 00:42:26;;;;;;;26.12;15.05;;;;;;;1.00;99.03;100974.16;1695539;82;21023;-55
2020/12/02 00:44:54;;;;;;;25.57;15.28;;;;;;;0.98;98.82;100967.52;1678128;83;21136;-51
2020/12/02 00:47:23;;;;;;;26.12;15.32;;;;;;;0.96;98.66;100978.58;1695462;82;21584;-55
2020/12/02 00:49:55;;;;;;;24.45;14.23;;;;;;;0.94;98.65;100971.46;1698483;82;21585;-52
2020/12/02 00:52:24;;;;;;;24.87;15.72;;;;;;;0.92;98.63;100976.77;1713721;82;21202;-56
2020/12/02 00:54:53;;;;;;;22.75;14.73;;;;;;;0.88;98.71;100970.97;1700596;82;21604;-55
2020/12/02 00:57:29;;;;;;;25.68;14.33;;;;;;;0.92;98.84;100983.41;1700821;82;21251;-52
2020/12/02 00:59:58;;;;;;;24.20;14.28;;;;;;;0.91;98.73;100975.00;1700581;82;21425;-50
2020/12/02 01:02:44;;;;;;;22.90;13.75;;;;;;;0.91;98.58;100977.66;1699682;82;21156;-51
2020/12/02 01:05:15;;;;;;;23.98;13.55;;;;;;;0.87;98.42;100974.51;1700617;82;22343;-55
2020/12/02 01:07:43;;;;;;;25.10;14.68;;;;;;;0.84;98.51;100967.83;1694937;82;21133;-51
2020/12/02 01:10:12;;;;;;;20.82;12.47;;;;;;;0.84;98.65;100967.83;1683809;82;21164;-56
2020/12/02 01:12:45;;;;;;;25.72;14.75;;;;;;;0.86;98.77;100971.41;1682785;83;20986;-50
2020/12/02 01:15:16;;;;;;;24.57;15.03;;;;;;;0.84;98.59;100965.17;1690006;82;20990;-57
2020/12/02 01:18:19;;;;;;;27.40;15.43;;;;;;;0.84;98.76;100966.50;1692167;82;21461;-54
2020/12/02 01:20:51;;;;;;;27.10;15.30;;;;;;;0.87;98.79;100965.22;1682100;82;21143;-51
2020/12/02 01:23:18;;;;;;;26.93;14.28;;;;;;;0.87;98.75;100961.67;1684131;82;21032;-54
2020/12/02 01:25:48;;;;;;;25.85;15.00;;;;;;;0.86;98.74;100956.80;1681327;82;20995;-56
2020/12/02 01:28:24;;;;;;;26.70;14.40;;;;;;;0.88;98.79;100956.37;1683396;83;21554;-55
2020/12/02 01:30:51;;;;;;;29.80;16.42;;;;;;;0.89;98.78;100955.48;1683241;83;21374;-54
2020/12/02 01:33:19;;;;;;;29.65;17.00;;;;;;;0.91;98.85;100959.06;1691680;82;21582;-55
2020/12/02 01:35:49;;;;;;;34.13;19.05;;;;;;;0.91;98.56;100952.42;1680961;82;21185;-55
2020/12/02 01:38:22;;;;;;;28.23;17.07;;;;;;;0.84;98.31;100959.86;1687270;82;21133;-51
2020/12/02 01:40:50;;;;;;;25.37;15.68;;;;;;;0.81;98.36;100943.92;1684125;82;21125;-54
2020/12/02 01:43:17;;;;;;;24.77;14.85;;;;;;;0.79;97.96;100953.62;1662656;83;22286;-54
2020/12/02 01:45:49;;;;;;;26.93;15.48;;;;;;;0.78;97.99;100949.20;1685882;82;21034;-54
2020/12/02 01:48:43;;;;;;;26.20;15.65;;;;;;;0.74;97.66;100952.69;1684638;83;20955;-53
2020/12/02 01:51:32;;;;;;;28.07;15.03;;;;;;;0.72;97.59;100950.47;1687393;82;21097;-54
2020/12/02 01:54:09;;;;;;;27.67;15.28;;;;;;;0.69;97.59;100949.10;1685524;83;21046;-60
2020/12/02 01:56:52;;;;;;;29.05;15.23;;;;;;;0.69;97.74;100943.80;1687760;82;21396;-55
2020/12/02 01:59:44;;;;;;;26.93;15.70;;;;;;;0.69;97.82;100950.02;1689843;82;21102;-53
2020/12/02 02:02:24;;;;;;;30.30;15.85;;;;;;;0.69;97.30;100935.83;1685438;82;21003;-54
2020/12/02 02:05:08;;;;;;;27.52;15.63;;;;;;;0.65;97.00;100934.05;1806028;78;22785;-55
2020/12/02 02:07:36;;;;;;;26.02;14.05;;;;;;;0.53;97.15;100934.80;1805613;78;21039;-55
2020/12/02 02:10:17;;;;;;;29.07;16.93;;;;;;;0.48;97.22;100938.77;1778383;78;21170;-54
2020/12/02 02:13:20;;;;;;;23.85;14.63;;;;;;;0.48;97.39;100935.19;1932292;72;22651;-57
2020/12/02 02:16:02;;;;;;;24.57;14.33;;;;;;;0.42;97.53;100946.63;1874949;74;20963;-54
2020/12/02 02:18:30;;;;;;;30.23;16.27;;;;;;;0.45;97.60;100934.73;1873370;74;21519;-51
2020/12/02 02:21:16;;;;;;;29.20;15.30;;;;;;;0.43;97.56;100940.48;1871169;74;21060;-54
2020/12/02 02:23:52;;;;;;;25.45;16.05;;;;;;;0.51;97.70;100936.13;1795251;77;22748;-54
2020/12/02 02:26:39;;;;;;;27.93;14.65;;;;;;;0.45;97.62;100940.05;1783524;79;21096;-55
2020/12/02 02:29:17;;;;;;;27.62;15.35;;;;;;;0.42;97.58;100937.34;1782426;79;21634;-55
2020/12/02 02:32:15;;;;;;;28.40;16.50;;;;;;;0.45;97.69;100937.39;1757726;77;28097;-55
2020/12/02 02:34:47;;;;;;;23.52;15.05;;;;;;;0.43;97.79;100935.17;1723640;80;21171;-52
2020/12/02 02:37:15;;;;;;;29.07;16.35;;;;;;;0.43;97.61;100928.54;1720123;80;24739;-51
2020/12/02 02:39:45;;;;;;;24.40;14.40;;;;;;;0.43;97.71;100939.59;1721354;80;21998;-52
2020/12/02 02:42:30;;;;;;;27.25;14.98;;;;;;;0.45;97.75;100949.33;1722437;80;20985;-50
2020/12/02 02:45:00;;;;;;;32.55;16.90;;;;;;;0.42;97.52;100940.00;1723341;80;21013;-52
2020/12/02 02:47:28;;;;;;;25.90;14.93;;;;;;;0.39;97.48;100950.60;1722782;80;20978;-55
2020/12/02 02:49:56;;;;;;;26.70;15.43;;;;;;;0.35;97.39;100946.57;1723277;80;21433;-54
2020/12/02 02:52:24;;;;;;;27.58;14.43;;;;;;;0.29;97.35;100951.38;1721147;80;21041;-52
2020/12/02 02:54:52;;;;;;;30.95;17.05;;;;;;;0.25;97.52;100952.21;1722534;80;21178;-51
2020/12/02 02:57:19;;;;;;;33.78;18.80;;;;;;;0.20;97.60;100951.27;1719732;80;21557;-53
2020/12/02 02:59:47;;;;;;;33.85;18.15;;;;;;;0.22;97.98;100947.78;1720408;80;21608;-55
2020/12/02 03:02:15;;;;;;;32.70;18.23;;;;;;;0.24;97.92;100955.74;1724821;80;21247;-51
2020/12/02 03:04:43;;;;;;;34.08;17.23;;;;;;;0.27;97.84;100951.81;1727217;80;21009;-51
2020/12/02 03:07:16;;;;;;;35.63;17.80;;;;;;;0.28;97.70;100952.26;1726023;80;21378;-52
2020/12/02 03:09:44;;;;;;;29.72;17.65;;;;;;;0.24;97.44;100955.74;1723744;80;21108;-50
2020/12/02 03:12:11;;;;;;;31.77;18.02;;;;;;;0.23;97.49;100953.97;1721836;80;21033;-50
2020/12/02 03:14:41;;;;;;;38.58;19.30;;;;;;;0.21;97.56;100950.39;1724844;80;21326;-53
2020/12/02 03:17:12;;;;;;;36.25;18.23;;;;;;;0.15;97.15;100956.95;1724344;80;21041;-52
2020/12/02 03:19:46;;;;;;;34.80;18.53;;;;;;;0.13;97.28;100954.73;1727961;80;21546;-53
2020/12/02 03:22:13;;;;;;;38.63;19.50;;;;;;;0.09;96.80;100950.26;1724276;80;21129;-54
2020/12/02 03:24:41;;;;;;;39.63;20.12;;;;;;;0.04;96.74;100947.98;1724573;80;21136;-53
2020/12/02 03:27:09;;;;;;;35.68;19.48;;;;;;;0.04;96.65;100952.86;1694589;80;21390;-55
2020/12/02 03:29:36;;;;;;;34.58;19.57;;;;;;;0.05;96.53;100953.74;1724407;80;21025;-50
2020/12/02 03:32:04;;;;;;;38.10;17.75;;;;;;;0.02;96.44;100956.38;1713895;80;21164;-53
2020/12/02 03:34:32;;;;;;;41.45;19.90;;;;;;;-0.02;96.33;100961.63;1714394;81;21541;-52
2020/12/02 03:37:00;;;;;;;37.48;20.43;;;;;;;0.02;96.50;100953.28;1713606;81;21159;-53
2020/12/02 03:39:28;;;;;;;40.38;19.77;;;;;;;0.08;96.35;100948.48;1712817;81;22318;-56
2020/12/02 03:41:56;;;;;;;37.30;19.48;;;;;;;0.09;95.90;100943.63;1710536;81;21219;-53
2020/12/02 03:44:24;;;;;;;40.12;19.55;;;;;;;0.11;95.91;100953.84;1714450;81;21038;-52
2020/12/02 03:46:52;;;;;;;35.35;17.60;;;;;;;0.07;95.80;100938.76;1713651;81;21087;-53
2020/12/02 03:49:19;;;;;;;33.98;18.30;;;;;;;0.06;95.80;100939.64;1689445;81;21018;-56
2020/12/02 03:51:47;;;;;;;33.98;17.65;;;;;;;0.02;95.85;100948.42;1713102;81;22354;-55
2020/12/02 03:54:15;;;;;;;34.63;18.62;;;;;;;0.01;95.88;100942.67;1714296;81;21116;-55
2020/12/02 03:56:43;;;;;;;36.40;18.62;;;;;;;-0.04;95.80;100951.45;1711802;81;20994;-55
2020/12/02 03:59:11;;;;;;;34.38;17.67;;;;;;;-0.07;95.88;100950.08;1712145;81;21192;-50
2020/12/02 04:01:39;;;;;;;36.17;18.50;;;;;;;-0.06;96.02;100949.20;1712423;81;21562;-52
2020/12/02 04:04:06;;;;;;;36.23;17.85;;;;;;;-0.08;96.01;100958.91;1714006;81;21663;-55
2020/12/02 04:06:34;;;;;;;34.45;16.67;;;;;;;-0.08;96.10;100950.06;1712982;81;21046;-51
2020/12/02 04:09:02;;;;;;;39.40;18.73;;;;;;;-0.06;96.00;100954.50;1712986;81;21006;-54
2020/12/02 04:11:29;;;;;;;39.25;18.42;;;;;;;-0.09;95.92;100961.11;1711667;80;21133;-51
2020/12/02 04:13:58;;;;;;;36.20;17.82;;;;;;;-0.07;95.96;100962.45;1710700;81;21149;-51
2020/12/02 04:16:25;;;;;;;37.75;18.82;;;;;;;-0.09;95.74;100959.78;1712001;80;21324;-55
2020/12/02 04:18:53;;;;;;;35.70;17.05;;;;;;;-0.08;95.93;100959.34;1712198;80;21134;-53
2020/12/02 04:21:24;;;;;;;36.25;17.15;;;;;;;-0.06;96.04;100965.11;1709428;80;21022;-51
2020/12/02 04:23:55;;;;;;;39.63;20.72;;;;;;;-0.04;95.92;100971.34;1711747;81;21164;-55
2020/12/02 04:26:23;;;;;;;37.45;19.30;;;;;;;-0.03;95.96;100966.92;1715155;81;21214;-54
2020/12/02 04:28:51;;;;;;;40.48;19.87;;;;;;;0.02;95.91;100976.27;1714260;81;21192;-52
2020/12/02 04:31:19;;;;;;;42.83;19.15;;;;;;;-0.01;95.45;100959.86;1714100;80;21025;-51
2020/12/02 04:33:47;;;;;;;44.45;22.17;;;;;;;-0.05;95.57;100964.27;1719326;80;21636;-51
2020/12/02 04:36:15;;;;;;;41.15;19.82;;;;;;;-0.07;95.69;100962.01;1719773;80;21160;-55
2020/12/02 04:38:43;;;;;;;43.28;19.70;;;;;;;-0.05;95.75;100959.40;1719670;80;21088;-55
2020/12/02 04:41:12;;;;;;;32.95;17.60;;;;;;;-0.07;95.57;100961.12;1726153;80;21442;-55
2020/12/02 04:43:42;;;;;;;35.83;17.90;;;;;;;-0.10;95.72;100952.71;1723566;80;21660;-56
2020/12/02 04:46:18;;;;;;;41.50;18.50;;;;;;;-0.09;95.80;100962.44;1720004;80;21184;-55
2020/12/02 04:48:51;;;;;;;38.53;20.32;;;;;;;-0.10;95.81;100961.09;1725703;80;20990;-52
2020/12/02 04:51:27;;;;;;;31.10;17.02;;;;;;;-0.17;95.86;100961.44;1722077;80;21192;-55
2020/12/02 04:53:57;;;;;;;36.25;16.40;;;;;;;-0.16;96.24;100955.29;1717986;80;22253;-56
2020/12/02 04:56:26;;;;;;;31.85;17.55;;;;;;;-0.11;96.44;100954.88;1721845;80;21010;-56
2020/12/02 04:58:55;;;;;;;31.55;16.90;;;;;;;-0.08;96.41;100950.95;1707166;80;21152;-57
2020/12/02 05:01:34;;;;;;;31.48;17.25;;;;;;;-0.05;96.42;100956.30;1720076;80;21140;-51
2020/12/02 05:04:18;;;;;;;27.17;13.85;;;;;;;-0.04;96.40;100952.78;1721296;80;21791;-55
2020/12/02 05:07:03;;;;;;;32.60;18.50;;;;;;;-0.01;96.39;100950.14;1721596;80;21371;-56
2020/12/02 05:09:35;;;;;;;29.07;16.23;;;;;;;-0.07;96.17;100960.68;1708447;80;21609;-54
2020/12/02 05:12:13;;;;;;;30.37;16.00;;;;;;;-0.05;96.34;100952.77;1722948;80;21136;-54
2020/12/02 05:14:44;;;;;;;28.73;16.05;;;;;;;-0.02;96.48;100952.78;1722005;80;21585;-52
2020/12/02 05:17:22;;;;;;;28.52;14.87;;;;;;;-0.06;96.43;100951.84;1722327;80;21100;-57
2020/12/02 05:20:22;;;;;;;27.00;15.30;;;;;;;-0.08;96.32;100958.91;1719627;80;21401;-54
2020/12/02 05:22:51;;;;;;;25.90;13.90;;;;;;;-0.14;96.45;100961.48;1718542;80;21258;-53
2020/12/02 05:25:29;;;;;;;27.60;14.83;;;;;;;-0.13;96.56;100955.30;1720517;80;21053;-53
2020/12/02 05:28:28;;;;;;;26.07;14.68;;;;;;;-0.12;96.62;100958.41;1720101;80;21593;-52
2020/12/02 05:31:15;;;;;;;26.20;16.40;;;;;;;-0.02;96.65;100959.41;1835875;76;28445;-55
2020/12/02 05:33:43;;;;;;;26.23;14.07;;;;;;;-0.05;96.60;100965.59;1810236;77;21426;-53
2020/12/02 05:36:16;;;;;;;21.82;13.90;;;;;;;-0.09;96.25;100962.44;1792454;77;22032;-59
2020/12/02 05:39:02;;;;;;;24.77;14.05;;;;;;;-0.09;96.48;100971.72;1795274;77;21461;-59
2020/12/02 05:41:30;;;;;;;23.20;12.93;;;;;;;-0.11;96.32;100971.22;1794192;77;21402;-55
2020/12/02 05:44:23;;;;;;;24.43;12.98;;;;;;;-0.14;96.57;100972.09;1768869;77;21726;-57
2020/12/02 05:47:01;;;;;;;28.35;14.47;;;;;;;-0.05;96.64;100969.56;1811906;76;23140;-55
2020/12/02 05:49:43;;;;;;;20.62;12.85;;;;;;;-0.15;96.56;100964.12;1766580;78;20973;-52
2020/12/02 05:52:36;;;;;;;25.02;13.70;;;;;;;-0.16;96.63;100971.20;1757250;79;21205;-56
2020/12/02 05:55:17;;;;;;;25.75;13.93;;;;;;;-0.20;96.62;100972.02;1758725;79;21624;-56
2020/12/02 05:58:00;;;;;;;24.55;14.13;;;;;;;-0.20;96.85;100972.02;1742149;79;21033;-59
2020/12/02 06:00:29;;;;;;;30.72;14.90;;;;;;;-0.22;96.92;100973.73;1759504;79;21462;-53
2020/12/02 06:02:57;;;;;;;24.18;13.32;;;;;;;-0.22;96.94;100972.41;1761246;79;20982;-54
2020/12/02 06:05:29;;;;;;;30.20;15.58;;;;;;;-0.20;96.93;100978.64;1753654;79;21381;-51
2020/12/02 06:08:01;;;;;;;26.77;16.00;;;;;;;-0.24;96.87;100986.09;1759998;79;21695;-52
2020/12/02 06:10:46;;;;;;;28.77;15.75;;;;;;;-0.24;96.90;100984.77;1759670;79;20993;-52
2020/12/02 06:13:33;;;;;;;31.57;16.70;;;;;;;-0.27;96.98;100986.96;1758808;79;21559;-55
2020/12/02 06:16:01;;;;;;;32.00;16.87;;;;;;;-0.26;96.98;100993.15;1756578;79;21707;-54
2020/12/02 06:18:32;;;;;;;27.70;14.35;;;;;;;-0.22;97.21;100989.64;1727331;80;22229;-50
2020/12/02 06:21:01;;;;;;;;;;;;;;;-0.23;96.96;100986.55;1756393;80;21147;-56
2020/12/02 06:23:43;;;;;;;39.75;18.92;;;;;;;-0.22;97.01;100986.11;1756837;79;24474;-53
2020/12/02 06:26:11;;;;;;;41.65;19.23;;;;;;;-0.22;97.03;100981.69;1757692;79;21088;-53
2020/12/02 06:28:43;;;;;;;54.48;22.55;;;;;;;-0.19;96.96;100984.40;1757059;79;20986;-53
2020/12/02 06:31:22;;;;;;;49.58;21.52;;;;;;;-0.14;96.95;100988.00;1757135;79;22037;-52
2020/12/02 06:33:50;;;;;;;35.78;19.00;;;;;;;-0.16;96.68;100985.78;1755730;79;21053;-53
2020/12/02 06:36:34;;;;;;;44.63;22.60;;;;;;;-0.16;96.53;100981.80;1762512;79;21143;-54
2020/12/02 06:39:16;;;;;;;47.60;22.20;;;;;;;-0.16;96.86;100984.86;1755818;79;21140;-51
2020/12/02 06:41:44;;;;;;;45.70;25.10;;;;;;;-0.18;96.85;100982.63;1758033;80;21167;-55
2020/12/02 06:44:20;;;;;;;43.25;22.45;;;;;;;-0.16;96.86;100980.47;1758467;78;21351;-55
2020/12/02 06:47:19;;;;;;;36.88;21.35;;;;;;;-0.14;96.59;100980.05;1751716;79;21545;-53
2020/12/02 06:49:47;;;;;;;40.12;21.73;;;;;;;-0.14;96.44;100989.33;1752390;79;21005;-49
2020/12/02 06:52:31;;;;;;;41.68;22.07;;;;;;;-0.14;96.42;100994.62;1720715;80;21121;-52
2020/12/02 06:55:16;;;;;;;47.30;23.35;;;;;;;-0.11;96.52;100997.30;1754509;79;21155;-53
2020/12/02 06:57:44;;;;;;;44.05;22.20;;;;;;;-0.10;96.29;100995.13;1752479;80;22063;-53
2020/12/02 07:00:25;;;;;;;48.68;21.48;;;;;;;-0.14;96.10;100998.61;1751881;79;21006;-51
2020/12/02 07:03:02;;;;;;;38.45;20.40;;;;;;;-0.08;96.23;100989.40;1852471;74;23242;-55
2020/12/02 07:05:43;;;;;;;45.65;20.12;;;;;;;-0.10;96.31;100992.48;1822042;77;20965;-54
2020/12/02 07:08:27;;;;;;;38.38;18.62;;;;;;;-0.09;96.08;100991.60;1819268;77;21395;-61
2020/12/02 07:11:12;;;;;;;37.10;19.42;;;;;;;-0.14;95.98;100993.30;1821147;77;21242;-51
2020/12/02 07:13:44;;;;;;;38.55;19.67;;;;;;;-0.12;96.23;100991.55;1793494;77;20981;-50
2020/12/02 07:16:30;;;;;;;41.35;19.70;;;;;;;-0.10;96.18;100988.50;1823721;77;20992;-51
2020/12/02 07:19:11;;;;;;;33.18;18.92;;;;;;;-0.03;96.01;100989.02;1830082;76;22891;-51
2020/12/02 07:21:54;;;;;;;44.08;19.65;;;;;;;-0.08;95.97;100985.42;1834771;77;20983;-50
2020/12/02 07:24:37;;;;;;;42.08;22.65;;;;;;;-0.06;95.92;100991.62;1832141;77;21488;-53
2020/12/02 07:27:06;;;;;;;40.03;20.92;;;;;;;-0.05;95.91;100990.78;1771317;80;21165;-52
2020/12/02 07:29:33;;;;;;;47.85;22.13;;;;;;;-0.04;95.74;100992.55;1778562;80;21006;-50
2020/12/02 07:32:19;;;;;;;47.17;23.90;;;;;;;-0.09;95.60;100994.25;1771846;80;21648;-53
2020/12/02 07:34:47;;;;;;;45.95;22.27;;;;;;;-0.10;95.88;100995.13;1770357;80;21255;-52
2020/12/02 07:37:20;;;;;;;43.45;23.98;;;;;;;-0.10;95.81;100995.56;1768554;80;21430;-53
2020/12/02 07:39:55;;;;;;;38.85;22.50;;;;;;;-0.20;95.72;100994.55;1748031;80;21037;-51
2020/12/02 07:42:38;;;;;;;46.10;22.98;;;;;;;-0.19;95.98;100992.35;1807429;76;22214;-51
2020/12/02 07:45:16;;;;;;;47.62;25.35;;;;;;;-0.20;96.27;100995.88;1780167;78;20994;-52
2020/12/02 07:47:59;;;;;;;45.23;24.23;;;;;;;-0.16;96.35;100991.48;1779866;78;21379;-49
2020/12/02 07:50:34;;;;;;;56.33;28.20;;;;;;;-0.12;96.30;101007.45;1783476;78;21635;-52
2020/12/02 07:53:36;;;;;;;56.92;26.60;;;;;;;-0.10;96.24;100999.55;1781569;78;21395;-53
2020/12/02 07:56:05;;;;;;;;;;;;;;;-0.09;96.11;101007.52;1782669;77;21037;-50
2020/12/02 07:58:35;;;;;;;55.28;24.85;;;;;;;-0.12;95.99;101004.80;1777532;78;20250;-50
2020/12/02 08:01:36;;;;;;;65.40;30.25;;;;;;;-0.12;96.16;101003.92;1779353;78;21264;-50
2020/12/02 08:04:25;;;;;;;66.67;32.23;;;;;;;-0.11;96.35;100999.95;1786958;77;21018;-52
2020/12/02 08:07:12;;;;;;;59.33;30.70;;;;;;;-0.01;96.31;100993.90;1853464;75;23533;-53
2020/12/02 08:09:45;;;;;;;59.67;29.85;;;;;;;-0.08;96.25;101001.33;1800572;77;20977;-52
2020/12/02 08:12:28;;;;;;;53.45;26.62;;;;;;;-0.04;96.18;100996.53;1811896;77;22886;-49
2020/12/02 08:15:08;;;;;;;61.02;28.15;;;;;;;-0.09;96.29;100999.55;1759924;79;21062;-52
2020/12/02 08:18:01;;;;;;;59.80;31.12;;;;;;;-0.04;96.34;100995.20;1812765;76;22803;-55
2020/12/02 08:20:33;;;;;;;55.03;27.58;;;;;;;-0.08;96.41;100990.73;1760150;79;21040;-53
2020/12/02 08:23:10;;;;;;;47.58;24.20;;;;;;;-0.07;96.35;100995.16;1760465;79;21365;-57
2020/12/02 08:26:06;;;;;;;52.45;25.92;;;;;;;-0.02;96.39;100993.45;1823857;76;22970;-54
2020/12/02 08:28:36;;;;;;;52.15;24.52;;;;;;;-0.07;96.35;100984.55;1795931;77;20972;-52
2020/12/02 08:31:25;;;;;;;47.20;24.40;;;;;;;-0.08;96.43;100982.77;1810014;78;21446;-54
2020/12/02 08:34:28;;;;;;;46.02;24.12;;;;;;;-0.03;96.58;100987.70;1800838;77;20952;-55
2020/12/02 08:37:25;;;;;;;49.98;24.50;;;;;;;-0.03;96.50;100986.37;1810753;78;20956;-53
2020/12/02 08:39:55;;;;;;;51.70;25.20;;;;;;;-0.02;96.44;100982.84;1810849;78;21557;-53
2020/12/02 08:42:32;;;;;;;52.90;23.60;;;;;;;-0.03;96.38;100985.05;1810442;78;21404;-53
2020/12/02 08:45:08;;;;;;;48.05;24.57;;;;;;;-0.02;96.55;100981.95;1810671;78;21360;-54
2020/12/02 08:47:56;;;;;;;51.28;27.42;;;;;;;0.04;96.65;100970.53;1870238;74;22275;-54
2020/12/02 08:50:29;;;;;;;54.00;27.93;;;;;;;0.01;96.76;100977.14;1817358;77;20961;-51
2020/12/02 08:52:58;;;;;;;57.08;31.75;;;;;;;0.02;96.82;100978.92;1821332;77;21369;-50
2020/12/02 08:55:26;;;;;;;56.28;28.47;;;;;;;0.05;96.86;100974.95;1821410;77;21085;-54
2020/12/02 08:57:54;;;;;;;51.75;29.15;;;;;;;0.07;96.92;100973.23;1820856;77;20946;-53
2020/12/02 09:00:22;;;;;;;51.85;28.07;;;;;;;0.08;96.91;100971.03;1822331;77;21665;-55
2020/12/02 09:02:50;;;;;;;50.25;29.02;;;;;;;0.11;96.88;100964.45;1819853;77;21084;-56
2020/12/02 09:05:18;;;;;;;50.17;28.02;;;;;;;0.14;96.88;100963.14;1820353;77;21636;-59
2020/12/02 09:07:46;;;;;;;46.90;27.70;;;;;;;0.17;96.87;100964.52;1820012;77;20961;-53
2020/12/02 09:10:14;;;;;;;48.42;28.30;;;;;;;0.20;96.87;100961.88;1816269;77;20985;-51
2020/12/02 09:12:42;;;;;;;49.65;29.45;;;;;;;0.22;96.80;100962.80;1821640;77;21163;-51
2020/12/02 09:15:10;;;;;;;51.92;25.60;;;;;;;0.23;96.72;100961.92;1821994;77;21658;-56
2020/12/02 09:17:40;;;;;;;44.33;24.92;;;;;;;0.25;96.63;100961.05;1820777;77;21385;-55
2020/12/02 09:20:07;;;;;;;52.62;27.37;;;;;;;0.28;96.61;100961.55;1820314;77;20965;-54
2020/12/02 09:22:35;;;;;;;52.90;27.73;;;;;;;0.29;96.56;100959.34;1821670;77;21024;-51
2020/12/02 09:25:03;;;;;;;53.42;29.12;;;;;;;0.33;96.63;100955.85;1822603;77;21004;-51
2020/12/02 09:27:32;;;;;;;62.10;28.73;;;;;;;0.35;96.55;100960.72;1822117;77;21092;-52
2020/12/02 09:29:59;;;;;;;56.58;28.87;;;;;;;0.36;96.36;100959.84;1820377;77;21370;-54
2020/12/02 09:32:27;;;;;;;52.58;26.93;;;;;;;0.35;96.24;100949.22;1822692;77;21401;-56
2020/12/02 09:34:55;;;;;;;58.35;29.30;;;;;;;0.37;96.19;100952.33;1824043;77;21528;-51
2020/12/02 09:37:23;;;;;;;51.00;27.02;;;;;;;0.37;96.26;100952.33;1822848;77;21135;-52
2020/12/02 09:39:52;;;;;;;59.67;31.30;;;;;;;0.38;96.31;100950.16;1823818;77;20983;-50
2020/12/02 09:42:46;;;;;;;68.25;31.77;;;;;;;0.39;96.21;100945.30;1793298;78;21386;-52
2020/12/02 09:45:40;;;;;;;46.02;25.72;;;;;;;0.37;96.13;100943.05;1823602;77;21969;-52
2020/12/02 09:48:14;;;;;;;53.65;26.02;;;;;;;0.37;95.94;100943.05;1822389;77;21201;-56
2020/12/02 09:50:42;;;;;;;55.30;27.35;;;;;;;0.39;95.91;100940.43;1824009;77;21544;-52
2020/12/02 09:53:20;;;;;;;53.38;27.82;;;;;;;0.42;95.75;100944.42;1822503;77;21139;-55
2020/12/02 09:55:49;;;;;;;56.20;30.45;;;;;;;0.39;95.56;100938.66;1819393;77;21437;-56
2020/12/02 09:58:17;;;;;;;50.45;27.95;;;;;;;0.39;95.54;100947.95;1821979;77;21164;-53
2020/12/02 10:00:45;;;;;;;49.25;27.42;;;;;;;0.40;95.53;100943.53;1821874;77;21151;-56
2020/12/02 10:03:27;;;;;;;49.58;27.17;;;;;;;0.38;95.37;100940.88;1818912;77;21493;-57
2020/12/02 10:06:17;;;;;;;50.65;28.02;;;;;;;0.40;95.31;100944.42;1821776;77;21005;-57
2020/12/02 10:09:03;;;;;;;46.88;27.05;;;;;;;0.40;95.22;100944.42;1822836;78;21437;-55
2020/12/02 10:11:55;;;;;;;51.50;29.15;;;;;;;0.45;95.38;100945.35;1823114;77;21029;-50
2020/12/02 10:14:34;;;;;;;48.25;27.40;;;;;;;0.47;95.33;100935.63;1824556;77;21147;-51
2020/12/02 10:17:27;;;;;;;58.30;29.95;;;;;;;0.49;95.23;100939.20;1823347;77;21040;-49
2020/12/02 10:20:26;;;;;;;67.45;33.53;;;;;;;0.52;95.21;100939.22;1820993;77;21469;-49
2020/12/02 10:23:54;;;;;;;55.20;31.12;;;;;;;0.58;95.13;100941.48;1843973;75;24015;-53
2020/12/02 10:26:51;;;;;;;56.15;31.02;;;;;;;0.55;95.04;100946.78;1809583;78;21066;-53
2020/12/02 10:29:42;;;;;;;53.33;28.60;;;;;;;0.58;95.27;100940.16;1810581;77;22076;-52
2020/12/02 10:32:34;;;;;;;52.43;27.13;;;;;;;0.64;95.90;100946.84;1771580;78;21537;-49
2020/12/02 10:35:02;;;;;;;52.58;30.02;;;;;;;0.68;95.48;100942.91;1767680;79;21571;-50
2020/12/02 10:37:34;;;;;;;56.77;31.07;;;;;;;0.69;95.36;100944.71;1740483;80;21040;-54
2020/12/02 10:40:04;;;;;;;56.10;29.15;;;;;;;0.68;94.94;100944.67;1762706;81;20990;-54
2020/12/02 10:43:01;;;;;;;60.10;28.87;;;;;;;0.65;94.79;100945.99;1772151;78;22356;-54
2020/12/02 10:45:31;;;;;;;54.38;28.42;;;;;;;0.64;94.77;100942.86;1768509;81;21020;-59
2020/12/02 10:48:26;;;;;;;62.27;27.50;;;;;;;0.58;94.61;100941.04;1767645;79;21002;-54
2020/12/02 10:50:55;;;;;;;50.95;25.85;;;;;;;0.61;94.80;100934.89;1771157;80;21164;-53
2020/12/02 10:53:26;;;;;;;53.28;26.80;;;;;;;0.65;94.79;100936.70;1742597;80;21169;-56
2020/12/02 10:56:00;;;;;;;52.58;24.67;;;;;;;0.65;94.42;100930.06;1767833;78;21747;-55
2020/12/02 10:58:31;;;;;;;55.25;24.82;;;;;;;0.62;94.29;100935.34;1768532;81;21151;-56
2020/12/02 11:01:01;;;;;;;56.00;25.70;;;;;;;0.61;94.32;100938.42;1767839;81;21195;-50
2020/12/02 11:03:32;;;;;;;54.00;25.05;;;;;;;0.63;94.39;100938.44;1767301;79;21864;-51
2020/12/02 11:06:11;;;;;;;50.38;25.50;;;;;;;0.65;94.26;100939.36;1766662;78;21101;-50
2020/12/02 11:09:11;;;;;;;54.93;27.40;;;;;;;0.65;93.98;100942.90;1770081;80;22057;-51
2020/12/02 11:12:00;;;;;;;45.33;23.27;;;;;;;0.63;93.65;100933.13;1767101;78;21037;-49
2020/12/02 11:14:53;;;;;;;43.42;25.75;;;;;;;0.64;93.59;100934.89;1788489;78;22668;-48
2020/12/02 11:17:46;;;;;;;47.93;24.37;;;;;;;0.57;93.74;100931.75;1758410;79;21118;-48
2020/12/02 11:20:17;;;;;;;46.80;25.27;;;;;;;0.56;93.78;100929.97;1760553;79;21508;-48
2020/12/02 11:23:24;;;;;;;55.40;25.75;;;;;;;0.52;93.74;100924.63;1762568;79;21013;-48
2020/12/02 11:25:59;;;;;;;50.40;25.00;;;;;;;0.54;93.93;100920.68;1762217;79;21464;-55
2020/12/02 11:28:27;;;;;;;56.92;26.17;;;;;;;0.50;93.88;100921.08;1758028;79;21723;-55
2020/12/02 11:31:08;;;;;;;48.15;26.02;;;;;;;0.49;94.20;100924.61;1760237;79;20914;-50
2020/12/02 11:34:23;;;;;;;47.15;24.75;;;;;;;0.49;94.28;100919.30;1757525;79;22115;-59
2020/12/02 11:37:07;;;;;;;59.65;26.68;;;;;;;0.49;94.53;100926.38;1760425;79;21024;-50
2020/12/02 11:39:58;;;;;;;56.77;27.87;;;;;;;0.48;94.74;100923.25;1734352;79;20989;-55
2020/12/02 11:42:53;;;;;;;;;;;;;;;0.49;94.80;100925.94;1761660;79;21159;-51
2020/12/02 11:45:29;;;;;;;48.80;24.47;;;;;;;0.50;94.93;100919.75;1756953;79;20161;-53
2020/12/02 11:48:11;;;;;;;58.05;29.25;;;;;;;0.51;94.85;100924.17;1760033;79;22007;-55
2020/12/02 11:50:54;;;;;;;61.23;29.55;;;;;;;0.49;94.92;100921.95;1762814;79;20994;-56
2020/12/02 11:53:46;;;;;;;54.15;27.55;;;;;;;0.47;95.01;100925.02;1762145;79;21013;-54
2020/12/02 11:56:25;;;;;;;64.85;30.32;;;;;;;0.47;95.15;100925.02;1759694;79;21557;-50
2020/12/02 11:59:07;;;;;;;73.22;32.73;;;;;;;0.51;95.44;100925.95;1703776;81;21128;-53